sensor_id;sensor_type;location;lat;lon;timestamp;P1;durP1;ratioP1;P2;durP2;ratioP2
21727;SDS011;11026;50.560;17.852;2024-01-15T00:02:04;15.57;;;8.95;;
21727;SDS011;11026;50.560;17.852;2024-01-15T00:04:39;15.00;;;9.77;;
21727;SDS011;11026;50.560;17.852;2024-01-15T00:07:08;19.45;;;10.35;;
21727;SDS011;11026;50.560;17.852;2024-01-15T00:09:36;17.10;;;10.15;;
21727;SDS011;11026;50.560;17.852;2024-01-15T00:12:04;16.83;;;9.85;;
21727;SDS011;11026;50.560;17.852;2024-01-15T00:14:31;13.18;;;8.77;;
21727;SDS011;11026;50.560;17.852;2024-01-15T00:16:58;14.63;;;8.88;;
21727;SDS011;11026;50.560;17.852;2024-01-15T00:19:27;11.73;;;7.57;;
21727;SDS011;11026;50.560;17.852;2024-01-15T00:21:56;12.15;;;6.85;;
21727;SDS011;11026;50.560;17.852;2024-01-15T00:24:23;11.75;;;6.95;;
21727;SDS011;11026;50.560;17.852;2024-01-15T00:26:51;9.27;;;6.32;;
21727;SDS011;11026;50.560;17.852;2024-01-15T00:29:20;11.32;;;7.18;;
21727;SDS011;11026;50.560;17.852;2024-01-15T00:31:47;11.07;;;7.53;;
21727;SDS011;11026;50.560;17.852;2024-01-15T00:36:44;9.25;;;6.00;;
21727;SDS011;11026;50.560;17.852;2024-01-15T00:39:11;7.03;;;5.30;;
21727;SDS011;11026;50.560;17.852;2024-01-15T00:41:38;7.80;;;5.20;;
21727;SDS011;11026;50.560;17.852;2024-01-15T00:44:07;7.88;;;5.60;;
21727;SDS011;11026;50.560;17.852;2024-01-15T00:46:44;6.55;;;4.85;;
21727;SDS011;11026;50.560;17.852;2024-01-15T00:51:44;7.38;;;5.18;;
21727;SDS011;11026;50.560;17.852;2024-01-15T00:54:11;6.15;;;4.82;;
21727;SDS011;11026;50.560;17.852;2024-01-15T00:56:39;7.18;;;4.80;;
21727;SDS011;11026;50.560;17.852;2024-01-15T00:59:06;7.05;;;5.32;;
21727;SDS011;11026;50.560;17.852;2024-01-15T01:01:34;6.75;;;5.60;;
21727;SDS011;11026;50.560;17.852;2024-01-15T01:04:01;8.95;;;5.47;;
21727;SDS011;11026;50.560;17.852;2024-01-15T01:06:30;7.90;;;5.30;;
21727;SDS011;11026;50.560;17.852;2024-01-15T01:09:01;7.85;;;5.80;;
21727;SDS011;11026;50.560;17.852;2024-01-15T01:11:29;7.40;;;5.22;;
21727;SDS011;11026;50.560;17.852;2024-01-15T01:13:57;7.88;;;5.20;;
21727;SDS011;11026;50.560;17.852;2024-01-15T01:16:25;6.75;;;5.20;;
21727;SDS011;11026;50.560;17.852;2024-01-15T01:18:52;7.45;;;4.93;;
21727;SDS011;11026;50.560;17.852;2024-01-15T01:21:20;7.60;;;5.20;;
21727;SDS011;11026;50.560;17.852;2024-01-15T01:23:47;8.35;;;5.47;;
21727;SDS011;11026;50.560;17.852;2024-01-15T01:26:17;7.63;;;4.97;;
21727;SDS011;11026;50.560;17.852;2024-01-15T01:28:44;7.32;;;5.60;;
21727;SDS011;11026;50.560;17.852;2024-01-15T01:31:12;7.22;;;4.80;;
21727;SDS011;11026;50.560;17.852;2024-01-15T01:33:42;6.45;;;4.55;;
21727;SDS011;11026;50.560;17.852;2024-01-15T01:36:09;7.10;;;4.90;;
21727;SDS011;11026;50.560;17.852;2024-01-15T01:38:37;8.02;;;5.40;;
21727;SDS011;11026;50.560;17.852;2024-01-15T01:41:05;6.70;;;4.72;;
21727;SDS011;11026;50.560;17.852;2024-01-15T01:43:31;6.53;;;4.63;;
21727;SDS011;11026;50.560;17.852;2024-01-15T01:46:00;6.65;;;4.75;;
21727;SDS011;11026;50.560;17.852;2024-01-15T01:48:27;7.75;;;5.38;;
21727;SDS011;11026;50.560;17.852;2024-01-15T01:51:00;6.60;;;5.10;;
21727;SDS011;11026;50.560;17.852;2024-01-15T01:53:30;6.18;;;4.70;;
21727;SDS011;11026;50.560;17.852;2024-01-15T01:56:01;7.53;;;4.78;;
21727;SDS011;11026;50.560;17.852;2024-01-15T01:58:31;8.20;;;5.35;;
21727;SDS011;11026;50.560;17.852;2024-01-15T02:01:00;7.53;;;4.90;;
21727;SDS011;11026;50.560;17.852;2024-01-15T02:03:29;6.65;;;5.45;;
21727;SDS011;11026;50.560;17.852;2024-01-15T02:08:28;7.20;;;4.72;;
21727;SDS011;11026;50.560;17.852;2024-01-15T02:10:55;8.13;;;5.05;;
21727;SDS011;11026;50.560;17.852;2024-01-15T02:13:22;7.85;;;5.28;;
21727;SDS011;11026;50.560;17.852;2024-01-15T02:15:50;5.20;;;4.43;;
21727;SDS011;11026;50.560;17.852;2024-01-15T02:18:17;6.45;;;4.90;;
21727;SDS011;11026;50.560;17.852;2024-01-15T02:20:44;6.93;;;4.85;;
21727;SDS011;11026;50.560;17.852;2024-01-15T02:23:12;6.40;;;4.78;;
21727;SDS011;11026;50.560;17.852;2024-01-15T02:25:44;6.97;;;5.03;;
21727;SDS011;11026;50.560;17.852;2024-01-15T02:28:13;6.53;;;5.07;;
21727;SDS011;11026;50.560;17.852;2024-01-15T02:30:45;7.18;;;5.80;;
21727;SDS011;11026;50.560;17.852;2024-01-15T02:33:13;6.68;;;5.03;;
21727;SDS011;11026;50.560;17.852;2024-01-15T02:35:41;7.45;;;5.53;;
21727;SDS011;11026;50.560;17.852;2024-01-15T02:38:09;6.95;;;4.97;;
21727;SDS011;11026;50.560;17.852;2024-01-15T02:40:38;7.85;;;4.88;;
21727;SDS011;11026;50.560;17.852;2024-01-15T02:43:06;7.55;;;5.10;;
21727;SDS011;11026;50.560;17.852;2024-01-15T02:45:33;7.20;;;4.63;;
21727;SDS011;11026;50.560;17.852;2024-01-15T02:48:01;6.13;;;4.80;;
21727;SDS011;11026;50.560;17.852;2024-01-15T02:50:28;5.75;;;4.45;;
21727;SDS011;11026;50.560;17.852;2024-01-15T02:52:56;6.30;;;5.07;;
21727;SDS011;11026;50.560;17.852;2024-01-15T03:00:27;10.18;;;6.53;;
21727;SDS011;11026;50.560;17.852;2024-01-15T03:02:54;7.10;;;5.57;;
21727;SDS011;11026;50.560;17.852;2024-01-15T03:05:22;7.93;;;5.22;;
21727;SDS011;11026;50.560;17.852;2024-01-15T03:07:49;7.05;;;4.57;;
21727;SDS011;11026;50.560;17.852;2024-01-15T03:10:17;6.10;;;4.78;;
21727;SDS011;11026;50.560;17.852;2024-01-15T03:12:45;9.48;;;5.82;;
21727;SDS011;11026;50.560;17.852;2024-01-15T03:15:12;7.47;;;5.28;;
21727;SDS011;11026;50.560;17.852;2024-01-15T03:17:41;9.68;;;5.50;;
21727;SDS011;11026;50.560;17.852;2024-01-15T03:22:39;6.95;;;5.10;;
21727;SDS011;11026;50.560;17.852;2024-01-15T03:25:07;7.22;;;5.05;;
21727;SDS011;11026;50.560;17.852;2024-01-15T03:27:35;6.40;;;4.78;;
21727;SDS011;11026;50.560;17.852;2024-01-15T03:30:03;6.72;;;4.70;;
21727;SDS011;11026;50.560;17.852;2024-01-15T03:32:30;6.70;;;5.07;;
21727;SDS011;11026;50.560;17.852;2024-01-15T03:34:58;7.07;;;5.22;;
21727;SDS011;11026;50.560;17.852;2024-01-15T03:37:25;8.43;;;5.15;;
21727;SDS011;11026;50.560;17.852;2024-01-15T03:39:52;7.30;;;4.88;;
21727;SDS011;11026;50.560;17.852;2024-01-15T03:42:21;6.68;;;5.22;;
21727;SDS011;11026;50.560;17.852;2024-01-15T03:49:50;7.15;;;5.13;;
21727;SDS011;11026;50.560;17.852;2024-01-15T03:52:17;7.40;;;4.95;;
21727;SDS011;11026;50.560;17.852;2024-01-15T03:54:44;6.13;;;4.57;;
21727;SDS011;11026;50.560;17.852;2024-01-15T03:57:12;6.60;;;4.65;;
21727;SDS011;11026;50.560;17.852;2024-01-15T03:59:40;7.28;;;4.90;;
21727;SDS011;11026;50.560;17.852;2024-01-15T04:02:08;5.15;;;4.20;;
21727;SDS011;11026;50.560;17.852;2024-01-15T04:04:35;6.35;;;4.85;;
21727;SDS011;11026;50.560;17.852;2024-01-15T04:07:03;7.53;;;5.40;;
21727;SDS011;11026;50.560;17.852;2024-01-15T04:12:01;7.75;;;5.57;;
21727;SDS011;11026;50.560;17.852;2024-01-15T04:14:28;7.78;;;5.80;;
21727;SDS011;11026;50.560;17.852;2024-01-15T04:16:55;10.18;;;5.55;;
21727;SDS011;11026;50.560;17.852;2024-01-15T04:19:22;7.88;;;5.22;;
21727;SDS011;11026;50.560;17.852;2024-01-15T04:21:50;9.05;;;5.82;;
21727;SDS011;11026;50.560;17.852;2024-01-15T04:24:18;7.20;;;5.07;;
21727;SDS011;11026;50.560;17.852;2024-01-15T04:26:45;7.03;;;5.28;;
21727;SDS011;11026;50.560;17.852;2024-01-15T04:29:12;8.60;;;5.50;;
21727;SDS011;11026;50.560;17.852;2024-01-15T04:31:39;8.00;;;5.50;;
21727;SDS011;11026;50.560;17.852;2024-01-15T04:34:06;7.95;;;5.60;;
21727;SDS011;11026;50.560;17.852;2024-01-15T04:36:40;8.95;;;6.00;;
21727;SDS011;11026;50.560;17.852;2024-01-15T04:39:08;7.57;;;5.40;;
21727;SDS011;11026;50.560;17.852;2024-01-15T04:46:40;8.48;;;5.65;;
21727;SDS011;11026;50.560;17.852;2024-01-15T04:49:10;8.80;;;5.93;;
21727;SDS011;11026;50.560;17.852;2024-01-15T04:51:38;9.48;;;6.38;;
21727;SDS011;11026;50.560;17.852;2024-01-15T04:56:36;10.13;;;6.63;;
21727;SDS011;11026;50.560;17.852;2024-01-15T04:59:04;10.77;;;7.18;;
21727;SDS011;11026;50.560;17.852;2024-01-15T05:01:31;11.27;;;6.47;;
21727;SDS011;11026;50.560;17.852;2024-01-15T05:04:00;9.85;;;6.88;;
21727;SDS011;11026;50.560;17.852;2024-01-15T05:06:28;13.57;;;7.88;;
21727;SDS011;11026;50.560;17.852;2024-01-15T05:08:55;10.05;;;6.80;;
21727;SDS011;11026;50.560;17.852;2024-01-15T05:11:22;9.80;;;7.05;;
21727;SDS011;11026;50.560;17.852;2024-01-15T05:13:50;10.48;;;6.53;;
21727;SDS011;11026;50.560;17.852;2024-01-15T05:18:47;10.98;;;7.15;;
21727;SDS011;11026;50.560;17.852;2024-01-15T05:21:16;10.93;;;7.55;;
21727;SDS011;11026;50.560;17.852;2024-01-15T05:23:43;9.57;;;7.05;;
21727;SDS011;11026;50.560;17.852;2024-01-15T05:26:11;10.73;;;7.65;;
21727;SDS011;11026;50.560;17.852;2024-01-15T05:28:40;11.10;;;7.07;;
21727;SDS011;11026;50.560;17.852;2024-01-15T05:31:09;12.35;;;8.00;;
21727;SDS011;11026;50.560;17.852;2024-01-15T05:33:38;12.40;;;7.90;;
21727;SDS011;11026;50.560;17.852;2024-01-15T05:36:05;12.13;;;8.45;;
21727;SDS011;11026;50.560;17.852;2024-01-15T05:38:35;11.98;;;7.53;;
21727;SDS011;11026;50.560;17.852;2024-01-15T05:41:02;14.82;;;9.65;;
21727;SDS011;11026;50.560;17.852;2024-01-15T05:43:29;12.25;;;8.45;;
21727;SDS011;11026;50.560;17.852;2024-01-15T05:45:56;12.85;;;8.65;;
21727;SDS011;11026;50.560;17.852;2024-01-15T05:48:23;10.05;;;7.65;;
21727;SDS011;11026;50.560;17.852;2024-01-15T05:50:52;11.82;;;8.20;;
21727;SDS011;11026;50.560;17.852;2024-01-15T05:53:20;12.50;;;7.80;;
21727;SDS011;11026;50.560;17.852;2024-01-15T05:55:47;13.50;;;8.00;;
21727;SDS011;11026;50.560;17.852;2024-01-15T05:58:16;13.88;;;8.10;;
21727;SDS011;11026;50.560;17.852;2024-01-15T06:00:43;11.98;;;8.20;;
21727;SDS011;11026;50.560;17.852;2024-01-15T06:03:10;11.90;;;8.20;;
21727;SDS011;11026;50.560;17.852;2024-01-15T06:05:38;12.18;;;7.78;;
21727;SDS011;11026;50.560;17.852;2024-01-15T06:08:07;12.55;;;8.35;;
21727;SDS011;11026;50.560;17.852;2024-01-15T06:10:34;12.80;;;8.50;;
21727;SDS011;11026;50.560;17.852;2024-01-15T06:13:02;12.40;;;8.40;;
21727;SDS011;11026;50.560;17.852;2024-01-15T06:15:29;11.75;;;8.15;;
21727;SDS011;11026;50.560;17.852;2024-01-15T06:17:56;13.13;;;8.45;;
21727;SDS011;11026;50.560;17.852;2024-01-15T06:20:25;12.45;;;7.85;;
21727;SDS011;11026;50.560;17.852;2024-01-15T06:22:54;14.82;;;8.60;;
21727;SDS011;11026;50.560;17.852;2024-01-15T06:27:51;11.38;;;8.02;;
21727;SDS011;11026;50.560;17.852;2024-01-15T06:30:18;14.68;;;9.30;;
21727;SDS011;11026;50.560;17.852;2024-01-15T06:32:46;13.55;;;8.10;;
21727;SDS011;11026;50.560;17.852;2024-01-15T06:35:13;11.52;;;7.72;;
21727;SDS011;11026;50.560;17.852;2024-01-15T06:37:40;11.82;;;8.30;;
21727;SDS011;11026;50.560;17.852;2024-01-15T06:40:08;13.70;;;8.80;;
21727;SDS011;11026;50.560;17.852;2024-01-15T06:42:37;11.05;;;8.25;;
21727;SDS011;11026;50.560;17.852;2024-01-15T06:45:05;12.50;;;8.32;;
21727;SDS011;11026;50.560;17.852;2024-01-15T06:47:32;13.52;;;8.38;;
21727;SDS011;11026;50.560;17.852;2024-01-15T06:49:59;12.43;;;8.40;;
21727;SDS011;11026;50.560;17.852;2024-01-15T06:52:26;12.05;;;8.00;;
21727;SDS011;11026;50.560;17.852;2024-01-15T06:54:55;11.98;;;8.15;;
21727;SDS011;11026;50.560;17.852;2024-01-15T06:57:23;13.23;;;8.10;;
21727;SDS011;11026;50.560;17.852;2024-01-15T06:59:51;12.93;;;8.90;;
21727;SDS011;11026;50.560;17.852;2024-01-15T07:02:18;14.90;;;8.80;;
21727;SDS011;11026;50.560;17.852;2024-01-15T07:04:45;12.43;;;8.45;;
21727;SDS011;11026;50.560;17.852;2024-01-15T07:09:42;15.52;;;9.52;;
21727;SDS011;11026;50.560;17.852;2024-01-15T07:14:41;18.48;;;10.25;;
21727;SDS011;11026;50.560;17.852;2024-01-15T07:17:08;14.77;;;9.82;;
21727;SDS011;11026;50.560;17.852;2024-01-15T07:19:35;14.52;;;9.70;;
21727;SDS011;11026;50.560;17.852;2024-01-15T07:24:34;17.25;;;11.23;;
21727;SDS011;11026;50.560;17.852;2024-01-15T07:27:02;17.13;;;10.60;;
21727;SDS011;11026;50.560;17.852;2024-01-15T07:29:31;18.88;;;11.48;;
21727;SDS011;11026;50.560;17.852;2024-01-15T07:31:59;19.70;;;11.32;;
21727;SDS011;11026;50.560;17.852;2024-01-15T07:34:28;15.88;;;10.93;;
21727;SDS011;11026;50.560;17.852;2024-01-15T07:36:55;16.13;;;10.50;;
21727;SDS011;11026;50.560;17.852;2024-01-15T07:39:24;18.15;;;11.73;;
21727;SDS011;11026;50.560;17.852;2024-01-15T07:41:52;19.00;;;11.48;;
21727;SDS011;11026;50.560;17.852;2024-01-15T07:44:21;20.42;;;11.95;;
21727;SDS011;11026;50.560;17.852;2024-01-15T07:46:47;31.50;;;15.82;;
21727;SDS011;11026;50.560;17.852;2024-01-15T07:49:15;18.00;;;11.27;;
21727;SDS011;11026;50.560;17.852;2024-01-15T07:51:44;21.33;;;13.20;;
21727;SDS011;11026;50.560;17.852;2024-01-15T07:54:12;18.40;;;11.90;;
21727;SDS011;11026;50.560;17.852;2024-01-15T07:59:25;16.45;;;10.73;;
21727;SDS011;11026;50.560;17.852;2024-01-15T08:01:53;16.90;;;11.35;;
21727;SDS011;11026;50.560;17.852;2024-01-15T08:04:21;20.33;;;12.57;;
21727;SDS011;11026;50.560;17.852;2024-01-15T08:06:51;18.25;;;10.90;;
21727;SDS011;11026;50.560;17.852;2024-01-15T08:09:19;19.50;;;11.90;;
21727;SDS011;11026;50.560;17.852;2024-01-15T08:11:47;18.80;;;11.63;;
21727;SDS011;11026;50.560;17.852;2024-01-15T08:14:13;19.25;;;12.00;;
21727;SDS011;11026;50.560;17.852;2024-01-15T08:16:42;18.58;;;11.85;;
21727;SDS011;11026;50.560;17.852;2024-01-15T08:19:11;18.67;;;11.68;;
21727;SDS011;11026;50.560;17.852;2024-01-15T08:21:39;18.02;;;10.90;;
21727;SDS011;11026;50.560;17.852;2024-01-15T08:24:06;18.42;;;11.15;;
21727;SDS011;11026;50.560;17.852;2024-01-15T08:26:35;19.85;;;11.50;;
21727;SDS011;11026;50.560;17.852;2024-01-15T08:29:03;18.02;;;10.02;;
21727;SDS011;11026;50.560;17.852;2024-01-15T08:31:30;20.42;;;11.60;;
21727;SDS011;11026;50.560;17.852;2024-01-15T08:33:58;16.80;;;11.25;;
21727;SDS011;11026;50.560;17.852;2024-01-15T08:36:26;15.80;;;10.88;;
21727;SDS011;11026;50.560;17.852;2024-01-15T08:38:54;20.88;;;11.98;;
21727;SDS011;11026;50.560;17.852;2024-01-15T08:41:22;24.10;;;12.15;;
21727;SDS011;11026;50.560;17.852;2024-01-15T08:43:50;30.10;;;16.40;;
21727;SDS011;11026;50.560;17.852;2024-01-15T08:46:20;17.65;;;11.05;;
21727;SDS011;11026;50.560;17.852;2024-01-15T08:48:47;19.92;;;11.43;;
21727;SDS011;11026;50.560;17.852;2024-01-15T08:51:15;17.33;;;11.10;;
21727;SDS011;11026;50.560;17.852;2024-01-15T08:53:42;18.23;;;11.18;;
21727;SDS011;11026;50.560;17.852;2024-01-15T08:56:10;15.65;;;11.05;;
21727;SDS011;11026;50.560;17.852;2024-01-15T08:58:40;16.45;;;10.45;;
21727;SDS011;11026;50.560;17.852;2024-01-15T09:03:39;18.52;;;11.98;;
21727;SDS011;11026;50.560;17.852;2024-01-15T09:06:08;17.60;;;10.65;;
21727;SDS011;11026;50.560;17.852;2024-01-15T09:08:36;17.88;;;11.50;;
21727;SDS011;11026;50.560;17.852;2024-01-15T09:11:03;17.65;;;10.38;;
21727;SDS011;11026;50.560;17.852;2024-01-15T09:13:31;18.95;;;11.45;;
21727;SDS011;11026;50.560;17.852;2024-01-15T09:15:58;19.88;;;12.82;;
21727;SDS011;11026;50.560;17.852;2024-01-15T09:18:28;18.17;;;11.32;;
21727;SDS011;11026;50.560;17.852;2024-01-15T09:20:58;22.48;;;14.00;;
21727;SDS011;11026;50.560;17.852;2024-01-15T09:23:25;18.42;;;11.63;;
21727;SDS011;11026;50.560;17.852;2024-01-15T09:25:56;18.30;;;11.00;;
21727;SDS011;11026;50.560;17.852;2024-01-15T09:28:23;20.52;;;12.60;;
21727;SDS011;11026;50.560;17.852;2024-01-15T09:30:52;17.70;;;10.13;;
21727;SDS011;11026;50.560;17.852;2024-01-15T09:33:19;21.08;;;12.38;;
21727;SDS011;11026;50.560;17.852;2024-01-15T09:35:47;18.30;;;10.65;;
21727;SDS011;11026;50.560;17.852;2024-01-15T09:38:14;23.63;;;12.32;;
21727;SDS011;11026;50.560;17.852;2024-01-15T09:40:43;19.80;;;11.00;;
21727;SDS011;11026;50.560;17.852;2024-01-15T09:43:12;17.48;;;11.20;;
21727;SDS011;11026;50.560;17.852;2024-01-15T09:45:42;18.33;;;10.85;;
21727;SDS011;11026;50.560;17.852;2024-01-15T09:48:10;16.65;;;10.13;;
21727;SDS011;11026;50.560;17.852;2024-01-15T09:50:40;13.80;;;9.90;;
21727;SDS011;11026;50.560;17.852;2024-01-15T09:53:08;15.80;;;9.57;;
21727;SDS011;11026;50.560;17.852;2024-01-15T09:55:36;18.52;;;10.93;;
21727;SDS011;11026;50.560;17.852;2024-01-15T09:58:06;17.40;;;10.88;;
21727;SDS011;11026;50.560;17.852;2024-01-15T10:00:33;18.35;;;11.27;;
21727;SDS011;11026;50.560;17.852;2024-01-15T10:03:06;21.45;;;10.65;;
21727;SDS011;11026;50.560;17.852;2024-01-15T10:05:33;15.95;;;9.90;;
21727;SDS011;11026;50.560;17.852;2024-01-15T10:08:01;15.02;;;9.50;;
21727;SDS011;11026;50.560;17.852;2024-01-15T10:13:03;17.90;;;9.50;;
21727;SDS011;11026;50.560;17.852;2024-01-15T10:15:33;14.40;;;8.70;;
21727;SDS011;11026;50.560;17.852;2024-01-15T10:18:03;15.90;;;9.30;;
21727;SDS011;11026;50.560;17.852;2024-01-15T10:20:34;15.07;;;9.02;;
21727;SDS011;11026;50.560;17.852;2024-01-15T10:23:02;16.60;;;9.98;;
21727;SDS011;11026;50.560;17.852;2024-01-15T10:25:30;14.75;;;9.00;;
21727;SDS011;11026;50.560;17.852;2024-01-15T10:28:01;17.20;;;9.48;;
21727;SDS011;11026;50.560;17.852;2024-01-15T10:30:30;14.98;;;9.00;;
21727;SDS011;11026;50.560;17.852;2024-01-15T10:32:59;14.35;;;8.85;;
21727;SDS011;11026;50.560;17.852;2024-01-15T10:35:32;12.82;;;8.95;;
21727;SDS011;11026;50.560;17.852;2024-01-15T10:38:01;13.32;;;7.45;;
21727;SDS011;11026;50.560;17.852;2024-01-15T10:40:29;12.70;;;8.20;;
21727;SDS011;11026;50.560;17.852;2024-01-15T10:42:57;13.82;;;8.40;;
21727;SDS011;11026;50.560;17.852;2024-01-15T10:45:25;13.90;;;8.40;;
21727;SDS011;11026;50.560;17.852;2024-01-15T10:47:53;13.40;;;7.75;;
21727;SDS011;11026;50.560;17.852;2024-01-15T10:50:22;13.10;;;8.23;;
21727;SDS011;11026;50.560;17.852;2024-01-15T10:52:51;16.45;;;8.63;;
21727;SDS011;11026;50.560;17.852;2024-01-15T10:55:20;12.57;;;8.18;;
21727;SDS011;11026;50.560;17.852;2024-01-15T10:57:49;14.73;;;9.27;;
21727;SDS011;11026;50.560;17.852;2024-01-15T11:00:17;16.52;;;8.27;;
21727;SDS011;11026;50.560;17.852;2024-01-15T11:02:45;13.15;;;8.73;;
21727;SDS011;11026;50.560;17.852;2024-01-15T11:05:12;13.55;;;8.23;;
21727;SDS011;11026;50.560;17.852;2024-01-15T11:07:39;13.38;;;8.27;;
21727;SDS011;11026;50.560;17.852;2024-01-15T11:10:08;13.13;;;7.90;;
21727;SDS011;11026;50.560;17.852;2024-01-15T11:13:15;13.43;;;7.97;;
21727;SDS011;11026;50.560;17.852;2024-01-15T11:16:00;11.98;;;7.00;;
21727;SDS011;11026;50.560;17.852;2024-01-15T11:18:36;12.85;;;7.68;;
21727;SDS011;11026;50.560;17.852;2024-01-15T11:32:04;13.60;;;7.63;;
21727;SDS011;11026;50.560;17.852;2024-01-15T11:37:17;14.02;;;8.13;;
21727;SDS011;11026;50.560;17.852;2024-01-15T11:39:44;14.60;;;9.60;;
21727;SDS011;11026;50.560;17.852;2024-01-15T11:47:13;22.38;;;13.10;;
21727;SDS011;11026;50.560;17.852;2024-01-15T11:49:53;16.55;;;9.27;;
21727;SDS011;11026;50.560;17.852;2024-01-15T11:52:25;15.18;;;8.90;;
21727;SDS011;11026;50.560;17.852;2024-01-15T11:55:14;17.70;;;9.77;;
21727;SDS011;11026;50.560;17.852;2024-01-15T11:57:52;10.93;;;6.53;;
21727;SDS011;11026;50.560;17.852;2024-01-15T12:00:23;12.13;;;7.28;;
21727;SDS011;11026;50.560;17.852;2024-01-15T12:02:52;14.43;;;7.95;;
21727;SDS011;11026;50.560;17.852;2024-01-15T12:05:20;13.63;;;7.90;;
21727;SDS011;11026;50.560;17.852;2024-01-15T12:07:48;12.48;;;7.45;;
21727;SDS011;11026;50.560;17.852;2024-01-15T12:10:17;13.85;;;7.35;;
21727;SDS011;11026;50.560;17.852;2024-01-15T12:12:51;13.40;;;8.00;;
21727;SDS011;11026;50.560;17.852;2024-01-15T12:15:29;13.15;;;8.40;;
21727;SDS011;11026;50.560;17.852;2024-01-15T12:17:59;14.57;;;8.30;;
21727;SDS011;11026;50.560;17.852;2024-01-15T12:20:30;14.20;;;7.63;;
21727;SDS011;11026;50.560;17.852;2024-01-15T12:22:57;13.20;;;7.57;;
21727;SDS011;11026;50.560;17.852;2024-01-15T12:25:30;15.98;;;8.63;;
21727;SDS011;11026;50.560;17.852;2024-01-15T12:27:58;14.90;;;8.13;;
21727;SDS011;11026;50.560;17.852;2024-01-15T12:30:27;10.85;;;7.25;;
21727;SDS011;11026;50.560;17.852;2024-01-15T12:32:55;15.68;;;8.85;;
21727;SDS011;11026;50.560;17.852;2024-01-15T12:35:25;13.95;;;7.93;;
21727;SDS011;11026;50.560;17.852;2024-01-15T12:38:00;15.48;;;9.20;;
21727;SDS011;11026;50.560;17.852;2024-01-15T12:40:33;16.00;;;9.13;;
21727;SDS011;11026;50.560;17.852;2024-01-15T12:43:03;22.42;;;13.50;;
21727;SDS011;11026;50.560;17.852;2024-01-15T12:45:32;12.93;;;8.15;;
21727;SDS011;11026;50.560;17.852;2024-01-15T12:47:59;13.68;;;8.15;;
21727;SDS011;11026;50.560;17.852;2024-01-15T12:50:27;15.02;;;9.05;;
21727;SDS011;11026;50.560;17.852;2024-01-15T12:52:56;16.63;;;9.05;;
21727;SDS011;11026;50.560;17.852;2024-01-15T12:55:23;19.35;;;10.05;;
21727;SDS011;11026;50.560;17.852;2024-01-15T12:57:51;17.85;;;9.52;;
21727;SDS011;11026;50.560;17.852;2024-01-15T13:00:21;13.77;;;8.60;;
21727;SDS011;11026;50.560;17.852;2024-01-15T13:02:50;14.45;;;7.90;;
21727;SDS011;11026;50.560;17.852;2024-01-15T13:05:17;14.90;;;8.60;;
21727;SDS011;11026;50.560;17.852;2024-01-15T13:07:48;12.20;;;8.05;;
21727;SDS011;11026;50.560;17.852;2024-01-15T13:10:16;11.43;;;7.55;;
21727;SDS011;11026;50.560;17.852;2024-01-15T13:12:44;12.63;;;7.85;;
21727;SDS011;11026;50.560;17.852;2024-01-15T13:15:11;14.32;;;7.18;;
21727;SDS011;11026;50.560;17.852;2024-01-15T13:17:42;12.00;;;7.28;;
21727;SDS011;11026;50.560;17.852;2024-01-15T13:20:11;11.05;;;7.18;;
21727;SDS011;11026;50.560;17.852;2024-01-15T13:22:40;14.05;;;8.20;;
21727;SDS011;11026;50.560;17.852;2024-01-15T13:25:12;11.52;;;6.70;;
21727;SDS011;11026;50.560;17.852;2024-01-15T13:27:40;10.65;;;7.03;;
21727;SDS011;11026;50.560;17.852;2024-01-15T13:30:10;13.15;;;7.65;;
21727;SDS011;11026;50.560;17.852;2024-01-15T13:32:40;10.77;;;6.40;;
21727;SDS011;11026;50.560;17.852;2024-01-15T13:35:08;12.57;;;7.45;;
21727;SDS011;11026;50.560;17.852;2024-01-15T13:37:40;11.40;;;7.20;;
21727;SDS011;11026;50.560;17.852;2024-01-15T13:40:09;14.13;;;7.07;;
21727;SDS011;11026;50.560;17.852;2024-01-15T13:42:36;13.75;;;7.70;;
21727;SDS011;11026;50.560;17.852;2024-01-15T13:45:07;12.57;;;6.60;;
21727;SDS011;11026;50.560;17.852;2024-01-15T13:47:34;24.45;;;12.80;;
21727;SDS011;11026;50.560;17.852;2024-01-15T13:50:02;13.45;;;7.25;;
21727;SDS011;11026;50.560;17.852;2024-01-15T13:52:30;14.23;;;8.23;;
21727;SDS011;11026;50.560;17.852;2024-01-15T13:54:57;12.23;;;7.82;;
21727;SDS011;11026;50.560;17.852;2024-01-15T13:57:24;11.27;;;6.47;;
21727;SDS011;11026;50.560;17.852;2024-01-15T13:59:51;12.13;;;6.60;;
21727;SDS011;11026;50.560;17.852;2024-01-15T14:02:18;12.57;;;7.78;;
21727;SDS011;11026;50.560;17.852;2024-01-15T14:04:49;11.38;;;6.50;;
21727;SDS011;11026;50.560;17.852;2024-01-15T14:07:16;11.45;;;7.38;;
21727;SDS011;11026;50.560;17.852;2024-01-15T14:09:44;12.25;;;7.10;;
21727;SDS011;11026;50.560;17.852;2024-01-15T14:12:12;9.43;;;5.88;;
21727;SDS011;11026;50.560;17.852;2024-01-15T14:14:39;11.30;;;6.55;;
21727;SDS011;11026;50.560;17.852;2024-01-15T14:17:07;9.48;;;5.78;;
21727;SDS011;11026;50.560;17.852;2024-01-15T14:19:34;11.57;;;6.28;;
21727;SDS011;11026;50.560;17.852;2024-01-15T14:22:03;8.85;;;5.75;;
21727;SDS011;11026;50.560;17.852;2024-01-15T14:24:30;11.13;;;5.75;;
21727;SDS011;11026;50.560;17.852;2024-01-15T14:26:59;10.45;;;5.93;;
21727;SDS011;11026;50.560;17.852;2024-01-15T14:29:26;9.82;;;6.30;;
21727;SDS011;11026;50.560;17.852;2024-01-15T14:31:55;8.63;;;5.32;;
21727;SDS011;11026;50.560;17.852;2024-01-15T14:34:24;12.38;;;5.80;;
21727;SDS011;11026;50.560;17.852;2024-01-15T14:36:52;9.52;;;5.60;;
21727;SDS011;11026;50.560;17.852;2024-01-15T14:39:22;10.65;;;6.85;;
21727;SDS011;11026;50.560;17.852;2024-01-15T14:41:50;12.55;;;6.93;;
21727;SDS011;11026;50.560;17.852;2024-01-15T14:46:48;11.85;;;7.32;;
21727;SDS011;11026;50.560;17.852;2024-01-15T14:49:15;9.82;;;6.13;;
21727;SDS011;11026;50.560;17.852;2024-01-15T14:51:44;11.93;;;7.10;;
21727;SDS011;11026;50.560;17.852;2024-01-15T14:54:12;13.68;;;8.18;;
21727;SDS011;11026;50.560;17.852;2024-01-15T14:56:39;11.73;;;7.13;;
21727;SDS011;11026;50.560;17.852;2024-01-15T14:59:06;11.90;;;6.55;;
21727;SDS011;11026;50.560;17.852;2024-01-15T15:01:33;11.23;;;6.93;;
21727;SDS011;11026;50.560;17.852;2024-01-15T15:04:01;11.50;;;6.72;;
21727;SDS011;11026;50.560;17.852;2024-01-15T15:06:29;11.70;;;6.90;;
21727;SDS011;11026;50.560;17.852;2024-01-15T15:08:57;11.27;;;6.20;;
21727;SDS011;11026;50.560;17.852;2024-01-15T15:11:28;11.13;;;6.90;;
21727;SDS011;11026;50.560;17.852;2024-01-15T15:13:56;15.80;;;7.95;;
21727;SDS011;11026;50.560;17.852;2024-01-15T15:16:24;13.90;;;7.20;;
21727;SDS011;11026;50.560;17.852;2024-01-15T15:18:51;13.43;;;8.20;;
21727;SDS011;11026;50.560;17.852;2024-01-15T15:21:20;15.18;;;7.97;;
21727;SDS011;11026;50.560;17.852;2024-01-15T15:23:47;13.23;;;8.23;;
21727;SDS011;11026;50.560;17.852;2024-01-15T15:26:14;16.25;;;9.05;;
21727;SDS011;11026;50.560;17.852;2024-01-15T15:28:41;12.20;;;7.00;;
21727;SDS011;11026;50.560;17.852;2024-01-15T15:31:10;17.00;;;9.68;;
21727;SDS011;11026;50.560;17.852;2024-01-15T15:33:39;11.93;;;7.35;;
21727;SDS011;11026;50.560;17.852;2024-01-15T15:36:06;20.75;;;9.75;;
21727;SDS011;11026;50.560;17.852;2024-01-15T15:38:34;12.77;;;7.45;;
21727;SDS011;11026;50.560;17.852;2024-01-15T15:41:01;11.45;;;6.80;;
21727;SDS011;11026;50.560;17.852;2024-01-15T15:43:29;15.98;;;8.75;;